Time;durP1;ratioP1;P1;durP2;ratioP2;P2;SDS_P1;SDS_P2;PMS_P1;PMS_P2;Temp;Humidity;BMP_temperature;BMP_pressure;BME280_temperature;BME280_humidity;BME280_pressure;Samples;Min_cycle;Max_cycle;Signal;HPM_P1;HPM_P2
2023/12/17 00:00:19;;;;;;;14.45;7.07;;;;;;;;;;4966308;28;20054;-75
2023/12/17 00:02:45;;;;;;;13.23;7.28;;;;;;;;;;4967833;28;20066;-75
2023/12/17 00:05:11;;;;;;;15.63;7.00;;;;;;;;;;4967869;28;20050;-75
2023/12/17 00:07:37;;;;;;;12.48;7.10;;;;;;;;;;4944941;28;20043;-75
2023/12/17 00:10:03;;;;;;;13.05;6.68;;;;;;;;;;4965565;28;20046;-75
2023/12/17 00:12:29;;;;;;;14.25;7.85;;;;;;;;;;4967384;28;20102;-75
2023/12/17 00:14:55;;;;;;;16.63;7.13;;;;;;;;;;4966469;28;20039;-75
2023/12/17 00:17:21;;;;;;;14.45;7.03;;;;;;;;;;4964666;28;20137;-75
2023/12/17 00:19:47;;;;;;;12.80;7.28;;;;;;;;;;4970009;28;20087;-75
2023/12/17 00:22:13;;;;;;;14.30;6.95;;;;;;;;;;4974000;28;20109;-75
2023/12/17 00:24:39;;;;;;;14.00;6.93;;;;;;;;;;4974514;28;20055;-75
2023/12/17 00:27:06;;;;;;;13.55;7.63;;;;;;;;;;4955090;29;20054;-75
2023/12/17 00:29:32;;;;;;;10.55;6.78;;;;;;;;;;4956195;29;20130;-75
2023/12/17 00:31:58;;;;;;;14.50;6.70;;;;;;;;;;4954615;28;20102;-75
2023/12/17 00:34:24;;;;;;;13.13;6.60;;;;;;;;;;4955909;29;20059;-75
2023/12/17 00:36:51;;;;;;;14.98;7.00;;;;;;;;;;4956771;28;20077;-75
2023/12/17 00:39:17;;;;;;;15.73;6.93;;;;;;;;;;4975046;28;20058;-75
2023/12/17 00:41:43;;;;;;;13.13;7.28;;;;;;;;;;4957141;28;20043;-75
2023/12/17 00:44:09;;;;;;;14.68;6.60;;;;;;;;;;4955906;28;20050;-75
2023/12/17 00:46:35;;;;;;;14.60;6.93;;;;;;;;;;4975032;28;20475;-75
2023/12/17 00:49:01;;;;;;;14.07;7.07;;;;;;;;;;4974888;28;20070;-75
2023/12/17 00:51:27;;;;;;;13.07;6.70;;;;;;;;;;4971335;28;20138;-75
2023/12/17 00:53:54;;;;;;;14.25;6.53;;;;;;;;;;4972295;28;20057;-75
2023/12/17 00:56:20;;;;;;;13.27;6.30;;;;;;;;;;4968418;28;20043;-75
2023/12/17 00:58:46;;;;;;;11.95;6.88;;;;;;;;;;4965948;28;20050;-75
2023/12/17 01:01:12;;;;;;;16.50;7.38;;;;;;;;;;4972953;28;20504;-75
2023/12/17 01:03:38;;;;;;;12.65;6.72;;;;;;;;;;4973644;28;20465;-75
2023/12/17 01:06:04;;;;;;;14.20;6.65;;;;;;;;;;4971598;28;20086;-75
2023/12/17 01:08:30;;;;;;;13.90;7.22;;;;;;;;;;4974791;28;20047;-75
2023/12/17 01:10:56;;;;;;;15.55;6.63;;;;;;;;;;4971523;28;20129;-75
2023/12/17 01:13:22;;;;;;;13.30;6.75;;;;;;;;;;4969341;28;20047;-75
2023/12/17 01:15:48;;;;;;;18.40;7.30;;;;;;;;;;4967368;28;20041;-75
2023/12/17 01:18:14;;;;;;;15.63;6.82;;;;;;;;;;4971545;28;20500;-75
2023/12/17 01:20:40;;;;;;;10.88;6.25;;;;;;;;;;4973843;28;20042;-75
2023/12/17 01:23:06;;;;;;;12.48;6.80;;;;;;;;;;4970517;28;20404;-75
2023/12/17 01:25:32;;;;;;;15.40;6.40;;;;;;;;;;4973307;28;20053;-75
2023/12/17 01:27:58;;;;;;;11.40;6.40;;;;;;;;;;4967938;28;20393;-75
2023/12/17 01:30:24;;;;;;;12.48;6.35;;;;;;;;;;4973838;28;20413;-75
2023/12/17 01:32:50;;;;;;;14.68;6.40;;;;;;;;;;4973128;28;20042;-75
2023/12/17 01:35:16;;;;;;;14.18;6.38;;;;;;;;;;4972626;28;20129;-75
2023/12/17 01:37:43;;;;;;;14.88;6.50;;;;;;;;;;4973926;28;20039;-75
2023/12/17 01:40:09;;;;;;;15.27;6.35;;;;;;;;;;4966206;28;20564;-75
2023/12/17 01:42:35;;;;;;;15.63;6.50;;;;;;;;;;4973331;28;20496;-75
2023/12/17 01:45:01;;;;;;;16.08;6.10;;;;;;;;;;4965660;28;20077;-75
2023/12/17 01:47:27;;;;;;;18.70;6.57;;;;;;;;;;4973025;28;20050;-75
2023/12/17 01:49:54;;;;;;;15.80;6.53;;;;;;;;;;4967915;28;20050;-75
2023/12/17 01:52:20;;;;;;;12.77;6.03;;;;;;;;;;4973794;28;20428;-75
2023/12/17 01:54:46;;;;;;;13.65;6.07;;;;;;;;;;4973847;28;20043;-75
2023/12/17 01:57:13;;;;;;;11.18;6.40;;;;;;;;;;4969383;28;20053;-75
2023/12/17 01:59:40;;;;;;;17.85;6.93;;;;;;;;;;4966970;28;20397;-75
2023/12/17 02:02:06;;;;;;;11.38;5.85;;;;;;;;;;4958468;28;20501;-75
2023/12/17 02:04:32;;;;;;;13.07;5.90;;;;;;;;;;4959156;28;20094;-75
2023/12/17 02:06:58;;;;;;;13.93;7.15;;;;;;;;;;4955877;28;20050;-75
2023/12/17 02:09:24;;;;;;;12.63;6.28;;;;;;;;;;4972288;28;20046;-75
2023/12/17 02:11:50;;;;;;;13.85;6.50;;;;;;;;;;4959771;28;20046;-75
2023/12/17 02:14:17;;;;;;;14.55;7.45;;;;;;;;;;4967851;28;20055;-75
2023/12/17 02:16:43;;;;;;;13.43;6.63;;;;;;;;;;4972635;28;20405;-75
2023/12/17 02:19:09;;;;;;;14.27;7.13;;;;;;;;;;4972198;28;20086;-75
2023/12/17 02:21:35;;;;;;;13.50;7.13;;;;;;;;;;4972194;28;20043;-75
2023/12/17 02:24:01;;;;;;;11.55;6.78;;;;;;;;;;4977329;28;20050;-75
2023/12/17 02:26:27;;;;;;;14.77;6.88;;;;;;;;;;4975118;28;20039;-75
2023/12/17 02:28:53;;;;;;;13.00;6.97;;;;;;;;;;4973424;28;20058;-75
2023/12/17 02:31:19;;;;;;;13.02;7.10;;;;;;;;;;4976562;28;20055;-75
2023/12/17 02:33:46;;;;;;;12.43;6.93;;;;;;;;;;4976182;28;20043;-75
2023/12/17 02:36:12;;;;;;;13.27;7.50;;;;;;;;;;4976243;28;20046;-75
2023/12/17 02:38:38;;;;;;;15.02;7.18;;;;;;;;;;4976798;28;20039;-75
2023/12/17 02:41:04;;;;;;;15.88;7.78;;;;;;;;;;4961977;28;20050;-75
2023/12/17 02:43:30;;;;;;;15.27;7.43;;;;;;;;;;4970672;28;20539;-75
2023/12/17 02:45:56;;;;;;;16.98;7.75;;;;;;;;;;4972607;28;20496;-75
2023/12/17 02:48:22;;;;;;;13.88;8.00;;;;;;;;;;4975246;28;20468;-75
2023/12/17 02:50:49;;;;;;;15.10;8.27;;;;;;;;;;4975723;28;20421;-75
2023/12/17 02:53:15;;;;;;;14.13;8.65;;;;;;;;;;4970335;28;20387;-75
2023/12/17 02:55:41;;;;;;;15.10;8.57;;;;;;;;;;4976344;28;20412;-75
2023/12/17 02:58:07;;;;;;;14.90;8.57;;;;;;;;;;4974643;28;20047;-75
2023/12/17 03:00:33;;;;;;;11.82;8.40;;;;;;;;;;4975866;28;20381;-75
2023/12/17 03:02:59;;;;;;;17.27;8.57;;;;;;;;;;4973309;28;20146;-75
2023/12/17 03:05:25;;;;;;;19.00;8.60;;;;;;;;;;4975188;28;20058;-75
2023/12/17 03:07:51;;;;;;;17.55;8.85;;;;;;;;;;4976452;28;20059;-75
2023/12/17 03:10:17;;;;;;;16.60;9.25;;;;;;;;;;4976695;28;20141;-75
2023/12/17 03:12:43;;;;;;;16.67;9.27;;;;;;;;;;4981925;28;20070;-75
2023/12/17 03:15:09;;;;;;;17.45;9.35;;;;;;;;;;4975634;28;20043;-75
2023/12/17 03:17:35;;;;;;;16.98;9.88;;;;;;;;;;4975430;28;20547;-75
2023/12/17 03:20:04;;;;;;;13.38;9.25;;;;;;;;;;4976037;28;20046;-75
2023/12/17 03:22:31;;;;;;;19.08;10.88;;;;;;;;;;4972523;28;20046;-75
2023/12/17 03:24:57;;;;;;;16.17;10.55;;;;;;;;;;4973335;28;20051;-75
2023/12/17 03:27:23;;;;;;;15.82;10.25;;;;;;;;;;4962219;28;20035;-75
2023/12/17 03:29:49;;;;;;;22.38;10.73;;;;;;;;;;4972505;28;20043;-75
2023/12/17 03:32:15;;;;;;;19.75;11.27;;;;;;;;;;4961219;28;20035;-75
2023/12/17 03:34:41;;;;;;;20.80;10.88;;;;;;;;;;4976027;28;20043;-75
2023/12/17 03:37:08;;;;;;;20.17;11.65;;;;;;;;;;4968061;28;20047;-75
2023/12/17 03:39:34;;;;;;;16.52;11.27;;;;;;;;;;4975654;28;20051;-75
2023/12/17 03:42:00;;;;;;;22.83;11.43;;;;;;;;;;4974236;28;20055;-75
2023/12/17 03:44:26;;;;;;;15.88;10.88;;;;;;;;;;4975770;28;20061;-75
2023/12/17 03:46:52;;;;;;;16.48;10.68;;;;;;;;;;4974427;28;20448;-75
2023/12/17 03:49:18;;;;;;;18.35;11.40;;;;;;;;;;4975913;28;20054;-75
2023/12/17 03:51:44;;;;;;;21.63;10.70;;;;;;;;;;4974650;28;20050;-75
2023/12/17 03:54:10;;;;;;;20.05;10.60;;;;;;;;;;4975745;28;20054;-75
2023/12/17 03:56:36;;;;;;;16.08;9.68;;;;;;;;;;4975549;28;20049;-75
2023/12/17 03:59:03;;;;;;;19.80;10.50;;;;;;;;;;4975743;28;20501;-75
2023/12/17 04:01:29;;;;;;;16.10;9.95;;;;;;;;;;4975514;28;20038;-75
2023/12/17 04:03:57;;;;;;;15.07;9.32;;;;;;;;;;4975079;28;20051;-75
2023/12/17 04:06:23;;;;;;;16.10;9.77;;;;;;;;;;4974152;28;20501;-75
2023/12/17 04:08:52;;;;;;;15.00;9.55;;;;;;;;;;4975385;28;20493;-75
2023/12/17 04:11:19;;;;;;;17.30;10.13;;;;;;;;;;4974200;28;20137;-75
2023/12/17 04:13:45;;;;;;;15.68;9.50;;;;;;;;;;4975485;28;20182;-75
2023/12/17 04:16:11;;;;;;;16.10;9.23;;;;;;;;;;4974840;28;20050;-75
2023/12/17 04:18:37;;;;;;;14.55;8.32;;;;;;;;;;4975103;28;20122;-75
2023/12/17 04:21:03;;;;;;;16.10;9.48;;;;;;;;;;4969445;28;20098;-75
2023/12/17 04:23:29;;;;;;;14.40;9.07;;;;;;;;;;4972229;28;20507;-75
2023/12/17 04:25:55;;;;;;;19.63;9.55;;;;;;;;;;4961721;28;20497;-75
2023/12/17 04:28:21;;;;;;;17.08;9.10;;;;;;;;;;4966002;28;20178;-75
2023/12/17 04:30:47;;;;;;;16.02;9.23;;;;;;;;;;4967508;28;20409;-75
2023/12/17 04:33:13;;;;;;;22.85;9.93;;;;;;;;;;4974285;28;20400;-75
2023/12/17 04:35:40;;;;;;;17.30;9.35;;;;;;;;;;4966559;28;20045;-75
2023/12/17 04:38:06;;;;;;;16.27;8.68;;;;;;;;;;4960835;28;20051;-75
2023/12/17 04:40:32;;;;;;;17.95;9.68;;;;;;;;;;4957276;28;20047;-75
2023/12/17 04:42:58;;;;;;;16.80;8.65;;;;;;;;;;4974653;28;20042;-75
2023/12/17 04:45:24;;;;;;;14.60;8.23;;;;;;;;;;4974138;28;20081;-75
2023/12/17 04:47:50;;;;;;;16.05;9.40;;;;;;;;;;4973797;28;20509;-75
2023/12/17 04:50:16;;;;;;;13.68;8.63;;;;;;;;;;4974154;28;20043;-75
2023/12/17 04:52:42;;;;;;;14.98;8.50;;;;;;;;;;4975135;28;20397;-75
2023/12/17 04:55:08;;;;;;;12.50;8.52;;;;;;;;;;4973812;28;20059;-75
2023/12/17 04:57:34;;;;;;;14.77;8.38;;;;;;;;;;4974008;28;20059;-75
2023/12/17 05:00:02;;;;;;;15.57;9.82;;;;;;;;;;4974192;28;20054;-75
2023/12/17 05:02:28;;;;;;;15.18;8.68;;;;;;;;;;4973006;28;20058;-75
2023/12/17 05:04:54;;;;;;;13.88;8.55;;;;;;;;;;4972904;28;20133;-75
2023/12/17 05:07:20;;;;;;;14.68;9.48;;;;;;;;;;4973692;28;20055;-75
2023/12/17 05:09:46;;;;;;;12.38;8.35;;;;;;;;;;4973280;28;20382;-75
2023/12/17 05:12:12;;;;;;;13.63;9.40;;;;;;;;;;4973794;28;20492;-75
2023/12/17 05:14:38;;;;;;;18.30;9.77;;;;;;;;;;4972522;28;20050;-75
2023/12/17 05:17:04;;;;;;;14.18;9.40;;;;;;;;;;4973522;28;20054;-75
2023/12/17 05:19:30;;;;;;;11.88;9.10;;;;;;;;;;4971971;28;20047;-75
2023/12/17 05:21:56;;;;;;;15.43;9.23;;;;;;;;;;4966532;28;20043;-75
2023/12/17 05:24:22;;;;;;;13.02;8.85;;;;;;;;;;4973068;28;20043;-75
2023/12/17 05:26:48;;;;;;;16.83;9.30;;;;;;;;;;4969690;28;20481;-75
2023/12/17 05:29:14;;;;;;;14.95;9.10;;;;;;;;;;4972643;28;20546;-75
2023/12/17 05:31:40;;;;;;;14.35;9.30;;;;;;;;;;4966720;28;20511;-75
2023/12/17 05:34:08;;;;;;;16.25;9.65;;;;;;;;;;4967331;28;20492;-75
2023/12/17 05:36:35;;;;;;;15.20;9.45;;;;;;;;;;4971824;28;20526;-75
2023/12/17 05:39:01;;;;;;;17.67;9.48;;;;;;;;;;4973557;28;20050;-75
2023/12/17 05:41:27;;;;;;;11.70;8.38;;;;;;;;;;4967794;28;20074;-75
2023/12/17 05:43:53;;;;;;;16.30;9.23;;;;;;;;;;4968380;28;20054;-75
2023/12/17 05:46:19;;;;;;;16.05;9.68;;;;;;;;;;4962423;28;20055;-75
2023/12/17 05:48:45;;;;;;;15.23;8.90;;;;;;;;;;4972760;28;20125;-75
2023/12/17 05:51:11;;;;;;;15.70;9.05;;;;;;;;;;4972565;28;20386;-75
2023/12/17 05:53:37;;;;;;;16.25;10.30;;;;;;;;;;4974095;28;20401;-75
2023/12/17 05:56:04;;;;;;;15.60;10.68;;;;;;;;;;4972024;28;20130;-75
2023/12/17 05:58:30;;;;;;;18.60;9.82;;;;;;;;;;4972897;28;20046;-75
2023/12/17 06:00:56;;;;;;;16.55;10.23;;;;;;;;;;4973777;28;20043;-75
2023/12/17 06:03:22;;;;;;;16.35;10.18;;;;;;;;;;4960151;28;20059;-75
2023/12/17 06:05:48;;;;;;;17.17;10.10;;;;;;;;;;4969852;28;20047;-75
2023/12/17 06:08:14;;;;;;;15.23;10.05;;;;;;;;;;4973794;28;20074;-75
2023/12/17 06:10:41;;;;;;;15.30;9.60;;;;;;;;;;4973400;28;20043;-75
2023/12/17 06:13:07;;;;;;;16.25;9.80;;;;;;;;;;4973528;28;20043;-75
2023/12/17 06:15:33;;;;;;;13.40;9.15;;;;;;;;;;4973947;28;20117;-75
2023/12/17 06:17:59;;;;;;;15.38;9.23;;;;;;;;;;4973659;28;20125;-75
2023/12/17 06:20:25;;;;;;;13.95;8.60;;;;;;;;;;4971796;28;20098;-75
2023/12/17 06:22:52;;;;;;;14.05;9.27;;;;;;;;;;4964337;28;20043;-75
2023/12/17 06:25:18;;;;;;;13.27;8.55;;;;;;;;;;4971575;28;20053;-75
2023/12/17 06:27:44;;;;;;;13.52;8.25;;;;;;;;;;4970571;28;20508;-75
2023/12/17 06:30:10;;;;;;;13.65;8.50;;;;;;;;;;4968409;28;20519;-75
2023/12/17 06:32:37;;;;;;;13.07;8.18;;;;;;;;;;4972969;28;20397;-75
2023/12/17 06:35:03;;;;;;;13.25;7.32;;;;;;;;;;4973634;28;20066;-75
2023/12/17 06:37:29;;;;;;;13.50;7.70;;;;;;;;;;4972216;28;20046;-75
2023/12/17 06:39:55;;;;;;;14.88;7.78;;;;;;;;;;4955720;28;20088;-75
2023/12/17 06:42:21;;;;;;;12.77;7.60;;;;;;;;;;4956481;28;20417;-75
2023/12/17 06:44:47;;;;;;;11.93;8.30;;;;;;;;;;4982845;28;20047;-75
2023/12/17 06:47:15;;;;;;;15.25;7.22;;;;;;;;;;4962277;28;20042;-75
2023/12/17 06:49:41;;;;;;;15.45;7.60;;;;;;;;;;4972799;28;20053;-75
2023/12/17 06:52:07;;;;;;;12.48;7.68;;;;;;;;;;4971153;28;20105;-75
2023/12/17 06:54:33;;;;;;;14.43;8.10;;;;;;;;;;4972917;28;20465;-75
2023/12/17 06:57:00;;;;;;;14.88;9.65;;;;;;;;;;4969418;28;20524;-75
2023/12/17 06:59:26;;;;;;;17.42;9.13;;;;;;;;;;4959079;28;20047;-75
2023/12/17 07:01:52;;;;;;;14.15;7.75;;;;;;;;;;4968346;28;20074;-75
2023/12/17 07:04:18;;;;;;;14.68;8.30;;;;;;;;;;4973429;28;20072;-75
2023/12/17 07:06:44;;;;;;;14.27;9.32;;;;;;;;;;4971652;28;20089;-75
2023/12/17 07:09:10;;;;;;;13.75;9.15;;;;;;;;;;4975165;28;20066;-75
2023/12/17 07:11:36;;;;;;;13.88;9.73;;;;;;;;;;4975534;28;20046;-75
2023/12/17 07:14:02;;;;;;;16.33;10.57;;;;;;;;;;4976568;28;20412;-75
2023/12/17 07:16:28;;;;;;;16.85;10.75;;;;;;;;;;4976107;28;20059;-75
2023/12/17 07:18:55;;;;;;;17.90;10.88;;;;;;;;;;4975653;28;20050;-75
2023/12/17 07:21:21;;;;;;;19.13;11.32;;;;;;;;;;4970775;28;20047;-75
2023/12/17 07:23:47;;;;;;;19.35;11.68;;;;;;;;;;4968583;28;20135;-75
2023/12/17 07:26:14;;;;;;;23.30;12.40;;;;;;;;;;4967134;28;20109;-75
2023/12/17 07:28:41;;;;;;;20.83;13.27;;;;;;;;;;4970257;28;20085;-75
2023/12/17 07:31:07;;;;;;;24.20;13.93;;;;;;;;;;4975592;28;20054;-75
2023/12/17 07:33:33;;;;;;;18.05;11.10;;;;;;;;;;4990062;28;20050;-75
2023/12/17 07:35:59;;;;;;;16.05;10.75;;;;;;;;;;4975742;28;20047;-75
2023/12/17 07:38:25;;;;;;;15.00;10.93;;;;;;;;;;4967740;28;20054;-75
2023/12/17 07:40:51;;;;;;;20.38;11.27;;;;;;;;;;4973672;28;20489;-74
2023/12/17 07:43:17;;;;;;;20.55;11.65;;;;;;;;;;4973741;28;20516;-75
2023/12/17 07:45:43;;;;;;;18.55;10.43;;;;;;;;;;4974750;28;20047;-75
2023/12/17 07:48:09;;;;;;;21.45;10.95;;;;;;;;;;4974112;28;20496;-75
2023/12/17 07:50:36;;;;;;;21.50;11.00;;;;;;;;;;4972687;28;20454;-75
2023/12/17 07:53:02;;;;;;;16.80;10.93;;;;;;;;;;4974310;28;20109;-75
2023/12/17 07:55:28;;;;;;;16.20;10.13;;;;;;;;;;4965319;28;20134;-75
2023/12/17 07:57:54;;;;;;;17.17;10.23;;;;;;;;;;4958330;28;20058;-75
2023/12/17 08:00:20;;;;;;;18.52;10.20;;;;;;;;;;4974599;28;20053;-75
2023/12/17 08:02:47;;;;;;;19.10;10.20;;;;;;;;;;4975068;28;20094;-75
2023/12/17 08:05:13;;;;;;;14.27;9.73;;;;;;;;;;4975438;28;20053;-75
2023/12/17 08:07:39;;;;;;;14.90;9.70;;;;;;;;;;4975230;28;20054;-75
2023/12/17 08:10:06;;;;;;;20.15;10.13;;;;;;;;;;4974391;28;20050;-75
2023/12/17 08:12:33;;;;;;;16.95;10.00;;;;;;;;;;4974937;28;20058;-75
2023/12/17 08:14:59;;;;;;;19.40;9.60;;;;;;;;;;4974728;28;20051;-75
2023/12/17 08:17:25;;;;;;;15.32;10.27;;;;;;;;;;4975165;28;20055;-75
2023/12/17 08:19:51;;;;;;;15.82;10.07;;;;;;;;;;4973639;28;20126;-75
2023/12/17 08:22:17;;;;;;;16.85;10.38;;;;;;;;;;4968457;28;20067;-75
2023/12/17 08:24:43;;;;;;;18.23;11.50;;;;;;;;;;4965446;28;20070;-75
2023/12/17 08:27:10;;;;;;;17.40;10.80;;;;;;;;;;4972929;28;20062;-75
2023/12/17 08:29:36;;;;;;;19.05;11.07;;;;;;;;;;4974475;28;20049;-75
2023/12/17 08:32:02;;;;;;;18.20;12.15;;;;;;;;;;4974678;28;20058;-75
2023/12/17 08:34:31;;;;;;;19.88;13.50;;;;;;;;;;4974784;28;20123;-75
2023/12/17 08:36:58;;;;;;;19.83;14.75;;;;;;;;;;4974326;28;20105;-75
2023/12/17 08:39:25;;;;;;;20.33;15.05;;;;;;;;;;4974579;28;20122;-75
2023/12/17 08:41:51;;;;;;;23.83;15.77;;;;;;;;;;4972894;28;20508;-75
2023/12/17 08:44:20;;;;;;;25.52;16.05;;;;;;;;;;4963005;28;20403;-75
2023/12/17 08:46:46;;;;;;;25.50;17.05;;;;;;;;;;4968285;28;20046;-75
2023/12/17 08:49:13;;;;;;;19.15;13.38;;;;;;;;;;4961464;28;20046;-75
2023/12/17 08:51:40;;;;;;;23.33;14.27;;;;;;;;;;4974208;28;20046;-75
2023/12/17 08:54:10;;;;;;;25.33;16.42;;;;;;;;;;4973130;28;20123;-75
2023/12/17 08:56:36;;;;;;;20.08;15.32;;;;;;;;;;4963166;28;20110;-75
2023/12/17 08:59:02;;;;;;;19.35;14.15;;;;;;;;;;4973813;28;20050;-75
2023/12/17 09:01:28;;;;;;;19.88;12.95;;;;;;;;;;4973909;28;20109;-75
2023/12/17 09:03:54;;;;;;;19.23;12.40;;;;;;;;;;4972380;28;20051;-75
2023/12/17 09:06:20;;;;;;;18.60;11.57;;;;;;;;;;4972810;28;20058;-75
2023/12/17 09:08:46;;;;;;;18.23;11.77;;;;;;;;;;4966882;28;20054;-75
2023/12/17 09:11:13;;;;;;;18.67;10.95;;;;;;;;;;4969384;28;20050;-75
2023/12/17 09:13:39;;;;;;;16.80;9.75;;;;;;;;;;4972165;28;20054;-75
2023/12/17 09:16:05;;;;;;;18.10;9.88;;;;;;;;;;4970631;28;20042;-75
2023/12/17 09:18:32;;;;;;;18.25;9.32;;;;;;;;;;4961294;28;20106;-75
2023/12/17 09:20:58;;;;;;;16.80;9.07;;;;;;;;;;4956848;28;20050;-75
2023/12/17 09:23:24;;;;;;;18.65;8.93;;;;;;;;;;4973637;28;20062;-75
2023/12/17 09:25:50;;;;;;;18.08;8.32;;;;;;;;;;4972539;28;20057;-75
2023/12/17 09:28:16;;;;;;;14.77;8.13;;;;;;;;;;4974113;28;20485;-75
2023/12/17 09:30:42;;;;;;;20.25;8.55;;;;;;;;;;4955531;28;20507;-75
2023/12/17 09:33:08;;;;;;;17.77;8.25;;;;;;;;;;4954589;28;20043;-75
2023/12/17 09:35:36;;;;;;;13.93;7.85;;;;;;;;;;4952902;28;20039;-75
2023/12/17 09:38:04;;;;;;;16.35;7.95;;;;;;;;;;4971888;28;20090;-74
2023/12/17 09:40:31;;;;;;;14.23;7.90;;;;;;;;;;4972430;28;20073;-75
2023/12/17 09:42:57;;;;;;;16.13;7.60;;;;;;;;;;4973250;28;20121;-75
2023/12/17 09:45:23;;;;;;;15.38;7.95;;;;;;;;;;4962461;28;20043;-75
2023/12/17 09:47:51;;;;;;;17.25;8.65;;;;;;;;;;4974144;28;20458;-75
2023/12/17 09:50:17;;;;;;;18.50;8.20;;;;;;;;;;4966194;28;20055;-75
2023/12/17 09:52:43;;;;;;;15.85;8.18;;;;;;;;;;4952023;28;20142;-75
2023/12/17 09:55:12;;;;;;;12.30;7.40;;;;;;;;;;4973786;28;20496;-75
2023/12/17 09:57:38;;;;;;;14.73;8.07;;;;;;;;;;4973835;28;20138;-75
2023/12/17 10:00:10;;;;;;;14.18;8.60;;;;;;;;;;4972393;28;20043;-75
2023/12/17 10:02:36;;;;;;;;;;;;;;;;;;4971405;28;20058;-75
2023/12/17 10:05:03;;;;;;;17.45;8.75;;;;;;;;;;4969088;28;20008;-75
2023/12/17 10:07:30;;;;;;;14.40;9.10;;;;;;;;;;4966720;28;20078;-75
2023/12/17 10:09:56;;;;;;;16.38;9.32;;;;;;;;;;4973756;28;20466;-73
2023/12/17 10:12:22;;;;;;;17.33;10.10;;;;;;;;;;4973494;28;20126;-74
2023/12/17 10:14:48;;;;;;;20.88;11.23;;;;;;;;;;4973322;28;20042;-75
2023/12/17 10:17:17;;;;;;;20.15;11.60;;;;;;;;;;4973628;28;20059;-75
2023/12/17 10:19:43;;;;;;;23.23;12.05;;;;;;;;;;4972883;28;20054;-75
2023/12/17 10:22:09;;;;;;;19.20;11.80;;;;;;;;;;4973208;28;20054;-75
2023/12/17 10:24:36;;;;;;;20.30;13.05;;;;;;;;;;4973286;28;20047;-75
2023/12/17 10:27:05;;;;;;;19.67;13.38;;;;;;;;;;4973302;28;20051;-75
2023/12/17 10:29:31;;;;;;;21.90;13.25;;;;;;;;;;4973432;28;20047;-75
2023/12/17 10:31:57;;;;;;;24.88;14.70;;;;;;;;;;4964555;28;20038;-75
2023/12/17 10:34:23;;;;;;;23.50;15.80;;;;;;;;;;4968082;28;20055;-75
2023/12/17 10:36:50;;;;;;;23.40;16.10;;;;;;;;;;4972592;28;20102;-75
2023/12/17 10:39:18;;;;;;;30.67;16.80;;;;;;;;;;4972170;28;20162;-75
2023/12/17 10:41:44;;;;;;;27.98;17.88;;;;;;;;;;4973365;28;20058;-75
2023/12/17 10:44:12;;;;;;;25.63;17.48;;;;;;;;;;4975920;28;20105;-75
2023/12/17 10:46:41;;;;;;;26.15;18.23;;;;;;;;;;4976711;28;20101;-75
2023/12/17 10:49:08;;;;;;;25.13;17.55;;;;;;;;;;4975141;28;20042;-75
2023/12/17 10:51:35;;;;;;;26.00;18.27;;;;;;;;;;4975307;28;20357;-75
2023/12/17 10:54:01;;;;;;;28.23;18.02;;;;;;;;;;4975621;28;20047;-75
2023/12/17 10:56:30;;;;;;;28.98;18.63;;;;;;;;;;4960564;28;20051;-75
2023/12/17 10:58:57;;;;;;;24.17;17.05;;;;;;;;;;4973794;28;20138;-75
2023/12/17 11:01:23;;;;;;;26.25;17.88;;;;;;;;;;4974574;28;20038;-75
2023/12/17 11:03:49;;;;;;;25.15;17.55;;;;;;;;;;4971462;28;20512;-75
2023/12/17 11:06:16;;;;;;;24.38;16.15;;;;;;;;;;4966838;28;20481;-75
2023/12/17 11:08:42;;;;;;;26.23;19.13;;;;;;;;;;4973123;28;20058;-75
2023/12/17 11:11:08;;;;;;;28.23;17.95;;;;;;;;;;4976468;28;20043;-75
2023/12/17 11:13:35;;;;;;;28.52;17.75;;;;;;;;;;4976801;28;20050;-75
2023/12/17 11:16:17;;;;;;;25.60;17.52;;;;;;;;;;4976018;28;20146;-75
2023/12/17 11:18:44;;;;;;;22.13;15.13;;;;;;;;;;4976394;28;20067;-75
2023/12/17 11:21:10;;;;;;;21.77;15.68;;;;;;;;;;4976448;28;20083;-75
2023/12/17 11:23:37;;;;;;;21.45;14.73;;;;;;;;;;4976418;28;20042;-75
2023/12/17 11:26:03;;;;;;;23.30;14.55;;;;;;;;;;4976157;28;20043;-75
2023/12/17 11:28:30;;;;;;;19.95;13.93;;;;;;;;;;4972785;28;20047;-75
2023/12/17 11:30:56;;;;;;;20.10;13.55;;;;;;;;;;4970247;28;20121;-75
2023/12/17 11:33:22;;;;;;;17.90;13.70;;;;;;;;;;4968565;28;20046;-75
2023/12/17 11:35:48;;;;;;;19.20;13.90;;;;;;;;;;4958556;28;20055;-75
2023/12/17 11:38:15;;;;;;;17.27;12.90;;;;;;;;;;4974697;28;20051;-75
2023/12/17 11:40:41;;;;;;;21.48;13.63;;;;;;;;;;4974185;28;20105;-75
2023/12/17 11:43:07;;;;;;;17.88;13.10;;;;;;;;;;4975030;28;20127;-75
2023/12/17 11:45:35;;;;;;;18.65;13.35;;;;;;;;;;4971719;28;20500;-75
2023/12/17 11:48:28;;;;;;;18.98;14.05;;;;;;;;;;4975921;28;20050;-75
2023/12/17 11:50:57;;;;;;;19.80;14.80;;;;;;;;;;4968529;28;20089;-76
2023/12/17 11:53:24;;;;;;;22.00;15.48;;;;;;;;;;4967844;28;20054;-75
2023/12/17 11:55:55;;;;;;;19.90;14.82;;;;;;;;;;4968227;28;20126;-75
2023/12/17 11:58:22;;;;;;;19.38;14.20;;;;;;;;;;4968732;28;20461;-75
2023/12/17 12:01:09;;;;;;;20.08;14.40;;;;;;;;;;4961573;28;20501;-75
2023/12/17 12:03:36;;;;;;;19.98;14.88;;;;;;;;;;4973180;28;20055;-75
2023/12/17 12:06:07;;;;;;;19.98;15.18;;;;;;;;;;4974135;28;20449;-75
2023/12/17 12:08:33;;;;;;;;;;;;;;;;;;4976293;28;20051;-75
2023/12/17 12:11:02;;;;;;;23.88;15.30;;;;;;;;;;4975705;28;19929;-75
2023/12/17 12:13:28;;;;;;;24.40;16.38;;;;;;;;;;4974346;28;20516;-75
2023/12/17 12:15:57;;;;;;;23.55;16.83;;;;;;;;;;4974530;28;20118;-75
2023/12/17 12:18:23;;;;;;;21.00;16.88;;;;;;;;;;4975266;28;20125;-75
2023/12/17 12:20:50;;;;;;;24.67;18.10;;;;;;;;;;4974777;28;20078;-75
2023/12/17 12:23:16;;;;;;;26.88;18.05;;;;;;;;;;4974969;28;20073;-75
2023/12/17 12:25:42;;;;;;;26.77;18.52;;;;;;;;;;4958979;28;20050;-75
2023/12/17 12:28:21;;;;;;;28.13;18.48;;;;;;;;;;4985394;28;20713;-75
2023/12/17 12:30:48;;;;;;;28.42;17.92;;;;;;;;;;4960991;28;20134;-75
2023/12/17 12:33:17;;;;;;;25.38;18.65;;;;;;;;;;4957280;28;20106;-75
2023/12/17 12:35:43;;;;;;;28.10;19.58;;;;;;;;;;4973915;28;20400;-75
2023/12/17 12:38:22;;;;;;;28.33;19.48;;;;;;;;;;4973164;28;20051;-75
2023/12/17 12:40:49;;;;;;;25.35;18.33;;;;;;;;;;4974186;28;20047;-75
2023/12/17 12:43:16;;;;;;;30.35;20.50;;;;;;;;;;4970342;28;20039;-75
2023/12/17 12:45:43;;;;;;;30.38;21.00;;;;;;;;;;4974222;28;20072;-75
2023/12/17 12:48:17;;;;;;;31.58;22.20;;;;;;;;;;4974357;28;20050;-74
2023/12/17 12:50:43;;;;;;;32.35;21.45;;;;;;;;;;4965193;28;20055;-75
2023/12/17 12:53:09;;;;;;;33.00;21.73;;;;;;;;;;4988358;28;20047;-75
2023/12/17 12:55:35;;;;;;;31.63;21.35;;;;;;;;;;4973434;28;20062;-76
2023/12/17 12:58:01;;;;;;;28.60;21.58;;;;;;;;;;4968996;28;20047;-75
2023/12/17 13:00:28;;;;;;;29.65;20.55;;;;;;;;;;4967376;28;20047;-75
2023/12/17 13:02:55;;;;;;;30.27;19.73;;;;;;;;;;4967391;28;20066;-75
2023/12/17 13:05:22;;;;;;;27.42;19.52;;;;;;;;;;4962719;28;20074;-75
2023/12/17 13:07:52;;;;;;;30.83;21.30;;;;;;;;;;4964129;28;20479;-75
2023/12/17 13:10:17;;;;;;;29.95;21.00;;;;;;;;;;4967971;28;20048;-75
2023/12/17 13:12:43;;;;;;;28.67;21.40;;;;;;;;;;4967978;28;20078;-75
2023/12/17 13:15:11;;;;;;;27.60;20.48;;;;;;;;;;4972682;28;20081;-75
2023/12/17 13:17:37;;;;;;;29.15;19.60;;;;;;;;;;4956167;28;20050;-75
2023/12/17 13:20:03;;;;;;;26.65;20.05;;;;;;;;;;4970725;28;20082;-75
2023/12/17 13:22:29;;;;;;;27.13;20.10;;;;;;;;;;4964625;28;20446;-75
2023/12/17 13:24:55;;;;;;;26.15;19.77;;;;;;;;;;4964119;28;20095;-75
2023/12/17 13:27:21;;;;;;;28.90;19.92;;;;;;;;;;4966329;28;20102;-75
2023/12/17 13:29:47;;;;;;;29.95;20.48;;;;;;;;;;4969349;28;20045;-75
2023/12/17 13:32:14;;;;;;;28.27;20.40;;;;;;;;;;4968033;28;20046;-75
2023/12/17 13:34:40;;;;;;;28.83;19.75;;;;;;;;;;4969646;28;20082;-75
2023/12/17 13:37:06;;;;;;;31.30;21.50;;;;;;;;;;4967606;28;20163;-75
2023/12/17 13:39:32;;;;;;;31.45;20.88;;;;;;;;;;4967702;28;20049;-75
2023/12/17 13:41:58;;;;;;;31.92;20.33;;;;;;;;;;4965345;28;20035;-75
2023/12/17 13:44:24;;;;;;;29.92;20.75;;;;;;;;;;4967484;28;20124;-75
2023/12/17 13:46:50;;;;;;;31.88;21.20;;;;;;;;;;4967132;28;20055;-75
2023/12/17 13:49:16;;;;;;;30.17;20.90;;;;;;;;;;4969253;28;20046;-75
2023/12/17 13:51:42;;;;;;;29.88;20.70;;;;;;;;;;4968675;28;20425;-75
2023/12/17 13:54:08;;;;;;;28.58;20.23;;;;;;;;;;4967957;28;20129;-75
2023/12/17 13:56:34;;;;;;;28.08;20.55;;;;;;;;;;4967568;28;20086;-75
2023/12/17 13:59:00;;;;;;;30.25;19.25;;;;;;;;;;4969815;28;20503;-75
2023/12/17 14:01:29;;;;;;;32.40;21.52;;;;;;;;;;4966891;28;20051;-75
2023/12/17 14:03:58;;;;;;;32.08;22.98;;;;;;;;;;4966625;28;20066;-75
2023/12/17 14:06:25;;;;;;;29.35;21.33;;;;;;;;;;4966489;28;20038;-75
2023/12/17 14:08:51;;;;;;;28.25;20.08;;;;;;;;;;4967484;28;20058;-74
2023/12/17 14:11:18;;;;;;;30.27;20.70;;;;;;;;;;4967493;28;20050;-75
2023/12/17 14:13:44;;;;;;;27.65;19.90;;;;;;;;;;4967819;28;20055;-75
2023/12/17 14:16:21;;;;;;;27.63;19.13;;;;;;;;;;4965952;28;20042;-75
2023/12/17 14:18:48;;;;;;;26.75;18.85;;;;;;;;;;4971401;28;20063;-75